Time;durP1;ratioP1;P1;durP2;ratioP2;P2;SDS_P1;SDS_P2;PMS_P1;PMS_P2;Temp;Humidity;BMP_temperature;BMP_pressure;BME280_temperature;BME280_humidity;BME280_pressure;Samples;Min_cycle;Max_cycle;Signal;HPM_P1;HPM_P2
2020/12/09 00:00:52;;;;;;;;;;;;;;;;;;4979222;28;20025;-65
2020/12/09 00:03:19;;;;;;;;;;;;;;;;;;4977485;28;20618;-64
2020/12/09 00:05:47;;;;;;;;;;;;;;;;;;4988062;28;19937;-65
2020/12/09 00:08:14;;;;;;;;;;;;;;;;;;4965557;28;20020;-64
2020/12/09 00:10:41;;;;;;;;;;;;;;;;;;4994491;28;19941;-64
2020/12/09 00:13:08;;;;;;;;;;;;;;;;;;4992363;28;19930;-64
2020/12/09 00:15:35;;;;;;;;;;;;;;;;;;4984446;28;20013;-66
2020/12/09 00:18:02;;;;;;;;;;;;;;;;;;4980636;28;20370;-63
2020/12/09 00:20:29;;;;;;;;;;;;;;;;;;4976164;28;20017;-66
2020/12/09 00:22:56;;;;;;;;;;;;;;;;;;4981147;28;19940;-64
2020/12/09 00:25:24;;;;;;;;;;;;;;;;;;4977218;28;19930;-66
2020/12/09 00:27:51;;;;;;;;;;;;;;;;;;4981984;28;20340;-63
2020/12/09 00:30:18;;;;;;;;;;;;;;;;;;4983087;28;20419;-64
2020/12/09 00:32:45;;;;;;;;;;;;;;;;;;4985672;28;20021;-64
2020/12/09 00:35:12;;;;;;;;;;;;;;;;;;4979004;28;19932;-65
2020/12/09 00:37:39;;;;;;;;;;;;;;;;;;4976243;28;19929;-64
2020/12/09 00:40:07;;;;;;;;;;;;;;;;;;4983168;28;20476;-65
2020/12/09 00:42:34;;;;;;;;;;;;;;;;;;4983920;28;19934;-65
2020/12/09 00:45:02;;;;;;;;;;;;;;;;;;4978821;28;19970;-64
2020/12/09 00:47:29;;;;;;;;;;;;;;;;;;4986629;28;19926;-67
2020/12/09 00:52:40;;;;;;;;;;;;;;;;;;4983963;28;20029;-64
2020/12/09 00:55:08;;;;;;;;;;;;;;;;;;4981233;28;19955;-65
2020/12/09 00:57:35;;;;;;;;;;;;;;;;;;4989986;28;19969;-64
2020/12/09 01:00:02;;;;;;;;;;;;;;;;;;4983668;28;20420;-64
2020/12/09 01:02:29;;;;;;;;;;;;;;;;;;4981002;28;20032;-65
2020/12/09 01:04:56;;;;;;;;;;;;;;;;;;4987353;28;20365;-64
2020/12/09 01:07:23;;;;;;;;;;;;;;;;;;4990960;28;19932;-64
2020/12/09 01:09:50;;;;;;;;;;;;;;;;;;4984933;28;20016;-66
2020/12/09 01:12:18;;;;;;;;;;;;;;;;;;4983803;28;20336;-64
2020/12/09 01:14:45;;;;;;;;;;;;;;;;;;4977716;28;19926;-64
2020/12/09 01:17:12;;;;;;;;;;;;;;;;;;4982577;28;19926;-63
2020/12/09 01:19:39;;;;;;;;;;;;;;;;;;4976382;28;20281;-63
2020/12/09 01:22:06;;;;;;;;;;;;;;;;;;4986777;28;19932;-65
2020/12/09 01:24:33;;;;;;;;;;;;;;;;;;4982769;28;19930;-68
2020/12/09 01:27:00;;;;;;;;;;;;;;;;;;4978351;28;19926;-64
2020/12/09 01:29:27;;;;;;;;;;;;;;;;;;4977047;28;19932;-64
2020/12/09 01:31:55;;;;;;;;;;;;;;;;;;4982103;28;20021;-64
2020/12/09 01:34:22;;;;;;;;;;;;;;;;;;4985444;28;19929;-64
2020/12/09 01:36:49;;;;;;;;;;;;;;;;;;4983742;28;20025;-64
2020/12/09 01:39:16;;;;;;;;;;;;;;;;;;4990812;28;19926;-64
2020/12/09 01:41:45;;;;;;;;;;;;;;;;;;4981078;28;19926;-64
2020/12/09 01:44:12;;;;;;;;;;;;;;;;;;4974260;28;20413;-64
2020/12/09 01:46:40;;;;;;;;;;;;;;;;;;4968497;28;19925;-64
2020/12/09 01:49:07;;;;;;;;;;;;;;;;;;4977179;28;20360;-64
2020/12/09 01:51:34;;;;;;;;;;;;;;;;;;4991526;28;19973;-64
2020/12/09 01:54:01;;;;;;;;;;;;;;;;;;4987372;28;20428;-64
2020/12/09 01:56:28;;;;;;;;;;;;;;;;;;4989474;28;19926;-65
2020/12/09 01:58:55;;;;;;;;;;;;;;;;;;4980294;28;20076;-64
2020/12/09 02:01:22;;;;;;;;;;;;;;;;;;4976235;28;20377;-67
2020/12/09 02:03:49;;;;;;;;;;;;;;;;;;4985799;23;19948;-69
2020/12/09 02:06:17;;;;;;;;;;;;;;;;;;4976103;28;20013;-67
2020/12/09 02:08:45;;;;;;;;;;;;;;;;;;4976453;28;20264;-67
2020/12/09 02:11:12;;;;;;;;;;;;;;;;;;4976042;28;19973;-71
2020/12/09 02:13:40;;;;;;;;;;;;;;;;;;4975699;28;20385;-66
2020/12/09 02:16:08;;;;;;;;;;;;;;;;;;4975885;28;19926;-71
2020/12/09 02:18:35;;;;;;;;;;;;;;;;;;4976643;28;20261;-71
2020/12/09 02:21:03;;;;;;;;;;;;;;;;;;4976067;28;19954;-66
2020/12/09 02:23:30;;;;;;;;;;;;;;;;;;4976232;28;20374;-67
2020/12/09 02:25:58;;;;;;;;;;;;;;;;;;4975912;28;19926;-66
2020/12/09 02:28:31;;;;;;;;;;;;;;;;;;4976116;28;19937;-69
2020/12/09 02:30:59;;;;;;;;;;;;;;;;;;4976232;28;19980;-71
2020/12/09 02:33:27;;;;;;;;;;;;;;;;;;4976755;28;19968;-68
2020/12/09 02:35:54;;;;;;;;;;;;;;;;;;4976136;28;19929;-67
2020/12/09 02:38:29;;;;;;;;;;;;;;;;;;4975948;28;20031;-72
2020/12/09 02:40:57;;;;;;;;;;;;;;;;;;4975561;28;19973;-76
2020/12/09 02:43:24;;;;;;;;;;;;;;;;;;4976155;28;19930;-66
2020/12/09 02:45:52;;;;;;;;;;;;;;;;;;4976453;28;19926;-67
2020/12/09 02:48:19;;;;;;;;;;;;;;;;;;4976012;28;19969;-67
2020/12/09 02:50:47;;;;;;;;;;;;;;;;;;4976058;28;20338;-72
2020/12/09 02:53:15;;;;;;;;;;;;;;;;;;4976707;28;19958;-67
2020/12/09 02:55:42;;;;;;;;;;;;;;;;;;4976573;28;20370;-67
2020/12/09 02:58:10;;;;;;;;;;;;;;;;;;4975867;28;20024;-67
2020/12/09 03:00:37;;;;;;;;;;;;;;;;;;4976453;28;19926;-71
2020/12/09 03:03:04;;;;;;;;;;;;;;;;;;4972314;28;19935;-68
2020/12/09 03:05:31;;;;;;;;;;;;;;;;;;4969743;28;19936;-68
2020/12/09 03:08:05;;;;;;;;;;;;;;;;;;4971145;28;19930;-67
2020/12/09 03:10:32;;;;;;;;;;;;;;;;;;4970570;28;19973;-69
2020/12/09 03:12:59;;;;;;;;;;;;;;;;;;4975509;28;19926;-72
2020/12/09 03:15:26;;;;;;;;;;;;;;;;;;4969601;28;19948;-67
2020/12/09 03:17:53;;;;;;;;;;;;;;;;;;4971552;28;19966;-68
2020/12/09 03:20:23;;;;;;;;;;;;;;;;;;4967492;28;19926;-68
2020/12/09 03:22:50;;;;;;;;;;;;;;;;;;4974437;28;19925;-67
2020/12/09 03:25:17;;;;;;;;;;;;;;;;;;4974213;28;20420;-72
2020/12/09 03:27:45;;;;;;;;;;;;;;;;;;4974708;28;20017;-67
2020/12/09 03:30:12;;;;;;;;;;;;;;;;;;4975327;28;20048;-67
2020/12/09 03:32:39;;;;;;;;;;;;;;;;;;4974292;28;20460;-68
2020/12/09 03:35:06;;;;;;;;;;;;;;;;;;4973150;28;20016;-67
2020/12/09 03:37:33;;;;;;;;;;;;;;;;;;4974795;28;20376;-68
2020/12/09 03:40:00;;;;;;;;;;;;;;;;;;4974761;28;20025;-68
2020/12/09 03:42:27;;;;;;;;;;;;;;;;;;4973834;28;19980;-67
2020/12/09 03:44:54;;;;;;;;;;;;;;;;;;4973632;28;19972;-68
2020/12/09 03:47:21;;;;;;;;;;;;;;;;;;4968365;28;20360;-68
2020/12/09 03:49:49;;;;;;;;;;;;;;;;;;4981639;28;19936;-67
2020/12/09 03:52:16;;;;;;;;;;;;;;;;;;4973831;28;20280;-69
2020/12/09 03:54:43;;;;;;;;;;;;;;;;;;4973480;28;20101;-68
2020/12/09 03:57:10;;;;;;;;;;;;;;;;;;4973674;28;20358;-69
2020/12/09 03:59:37;;;;;;;;;;;;;;;;;;4974454;28;19977;-72
2020/12/09 04:02:04;;;;;;;;;;;;;;;;;;4974211;28;19930;-72
2020/12/09 04:04:31;;;;;;;;;;;;;;;;;;4972442;28;19958;-71
2020/12/09 04:06:59;;;;;;;;;;;;;;;;;;4974407;28;19926;-76
2020/12/09 04:09:26;;;;;;;;;;;;;;;;;;4973722;28;19934;-73
2020/12/09 04:11:53;;;;;;;;;;;;;;;;;;4973001;28;20364;-68
2020/12/09 04:14:20;;;;;;;;;;;;;;;;;;4972640;28;19932;-68
2020/12/09 04:16:47;;;;;;;;;;;;;;;;;;4973165;28;19937;-68
2020/12/09 04:19:15;;;;;;;;;;;;;;;;;;4968032;28;20002;-68
2020/12/09 04:21:42;;;;;;;;;;;;;;;;;;4973431;28;20472;-68
2020/12/09 04:24:09;;;;;;;;;;;;;;;;;;4973216;28;19972;-69
2020/12/09 04:26:56;;;;;;;;;;;;;;;;;;1966319;28;10022014;-68
2020/12/09 04:29:23;;;;;;;;;;;;;;;;;;3943654;28;10001511;-68
2020/12/09 04:31:50;;;;;;;;;;;;;;;;;;4971798;28;19930;-68
2020/12/09 04:34:19;;;;;;;;;;;;;;;;;;4971831;28;20451;-67
2020/12/09 04:36:46;;;;;;;;;;;;;;;;;;4973270;28;19926;-67
2020/12/09 04:39:13;;;;;;;;;;;;;;;;;;4973508;28;19978;-67
2020/12/09 04:41:44;;;;;;;;;;;;;;;;;;4974185;28;19936;-68
2020/12/09 04:44:11;;;;;;;;;;;;;;;;;;4972734;28;20358;-74
2020/12/09 04:46:38;;;;;;;;;;;;;;;;;;4972070;28;19930;-68
2020/12/09 04:49:06;;;;;;;;;;;;;;;;;;4973317;28;19930;-67
2020/12/09 04:51:33;;;;;;;;;;;;;;;;;;4973452;28;19930;-69
2020/12/09 04:54:01;;;;;;;;;;;;;;;;;;4972455;28;19975;-70
2020/12/09 04:56:28;;;;;;;;;;;;;;;;;;4972254;28;19956;-67
2020/12/09 04:58:55;;;;;;;;;;;;;;;;;;4972880;28;19941;-67
2020/12/09 05:01:22;;;;;;;;;;;;;;;;;;4973241;28;20029;-70
2020/12/09 05:03:49;;;;;;;;;;;;;;;;;;4973380;28;19996;-67
2020/12/09 05:06:16;;;;;;;;;;;;;;;;;;4971932;28;20373;-70
2020/12/09 05:08:44;;;;;;;;;;;;;;;;;;4972569;28;19937;-71
2020/12/09 05:11:11;;;;;;;;;;;;;;;;;;4972470;28;19937;-68
2020/12/09 05:13:38;;;;;;;;;;;;;;;;;;4976555;28;20185;-68
2020/12/09 05:16:05;;;;;;;;;;;;;;;;;;4970214;28;20445;-67
2020/12/09 05:18:32;;;;;;;;;;;;;;;;;;4972288;28;19930;-68
2020/12/09 05:20:59;;;;;;;;;;;;;;;;;;4967013;28;20446;-71
2020/12/09 05:23:26;;;;;;;;;;;;;;;;;;4972726;28;20029;-67
2020/12/09 05:25:53;;;;;;;;;;;;;;;;;;4978528;28;19930;-73
2020/12/09 05:28:20;;;;;;;;;;;;;;;;;;4990902;28;20001;-67
2020/12/09 05:30:48;;;;;;;;;;;;;;;;;;4992624;28;20004;-68
2020/12/09 05:33:15;;;;;;;;;;;;;;;;;;4987850;28;20019;-71
2020/12/09 05:35:42;;;;;;;;;;;;;;;;;;4971248;28;19940;-69
2020/12/09 05:38:10;;;;;;;;;;;;;;;;;;4979977;28;19929;-68
2020/12/09 05:40:37;;;;;;;;;;;;;;;;;;4971879;28;19927;-69
2020/12/09 05:43:04;;;;;;;;;;;;;;;;;;4971129;28;19926;-68
2020/12/09 05:45:31;;;;;;;;;;;;;;;;;;4979769;28;20025;-67
2020/12/09 05:47:59;;;;;;;;;;;;;;;;;;4971616;28;19977;-68
2020/12/09 05:50:26;;;;;;;;;;;;;;;;;;4970969;28;20401;-68
2020/12/09 05:52:53;;;;;;;;;;;;;;;;;;4967532;28;19926;-66
2020/12/09 05:55:20;;;;;;;;;;;;;;;;;;4962131;28;19966;-77
2020/12/09 05:57:47;;;;;;;;;;;;;;;;;;4960640;28;20027;-70
2020/12/09 06:00:18;;;;;;;;;;;;;;;;;;4967928;28;19927;-72
2020/12/09 06:02:45;;;;;;;;;;;;;;;;;;4957418;28;19940;-71
2020/12/09 06:05:12;;;;;;;;;;;;;;;;;;4958400;28;19964;-66
2020/12/09 06:07:39;;;;;;;;;;;;;;;;;;4962758;28;19961;-65
2020/12/09 06:10:06;;;;;;;;;;;;;;;;;;4960011;28;20393;-68
2020/12/09 06:12:34;;;;;;;;;;;;;;;;;;4970688;28;19945;-76
2020/12/09 06:15:01;;;;;;;;;;;;;;;;;;4958696;28;20285;-70
2020/12/09 06:17:28;;;;;;;;;;;;;;;;;;4968164;28;19977;-68
2020/12/09 06:19:55;;;;;;;;;;;;;;;;;;4964872;28;19934;-68
2020/12/09 06:22:22;;;;;;;;;;;;;;;;;;4969258;28;19934;-67
2020/12/09 06:24:49;;;;;;;;;;;;;;;;;;4968158;28;19926;-68
2020/12/09 06:27:17;;;;;;;;;;;;;;;;;;4962472;28;20327;-71
2020/12/09 06:29:44;;;;;;;;;;;;;;;;;;4960226;28;20439;-71
2020/12/09 06:32:11;;;;;;;;;;;;;;;;;;4960996;28;19930;-67
2020/12/09 06:34:38;;;;;;;;;;;;;;;;;;4966203;28;20280;-70
2020/12/09 06:37:05;;;;;;;;;;;;;;;;;;4956896;28;19944;-69
2020/12/09 06:39:32;;;;;;;;;;;;;;;;;;4958873;28;19936;-75
2020/12/09 06:41:59;;;;;;;;;;;;;;;;;;4969276;28;19926;-71
2020/12/09 06:44:29;;;;;;;;;;;;;;;;;;4962291;28;19931;-69
2020/12/09 06:46:56;;;;;;;;;;;;;;;;;;4963083;28;19930;-69
2020/12/09 06:49:24;;;;;;;;;;;;;;;;;;4964526;28;19958;-69
2020/12/09 06:51:51;;;;;;;;;;;;;;;;;;4966770;28;19936;-69
2020/12/09 06:54:18;;;;;;;;;;;;;;;;;;4968197;28;20024;-73
2020/12/09 06:56:45;;;;;;;;;;;;;;;;;;4962148;28;19930;-72
2020/12/09 06:59:13;;;;;;;;;;;;;;;;;;4962201;28;19934;-69
2020/12/09 07:01:40;;;;;;;;;;;;;;;;;;4966872;28;19942;-71
2020/12/09 07:04:07;;;;;;;;;;;;;;;;;;4962111;28;20021;-71
2020/12/09 07:06:34;;;;;;;;;;;;;;;;;;4968070;28;19932;-70
2020/12/09 07:09:01;;;;;;;;;;;;;;;;;;4961976;28;19930;-66
2020/12/09 07:11:28;;;;;;;;;;;;;;;;;;4957005;28;19970;-73
2020/12/09 07:13:56;;;;;;;;;;;;;;;;;;4955294;28;19933;-71
2020/12/09 07:16:23;;;;;;;;;;;;;;;;;;4964103;28;19985;-65
2020/12/09 07:18:50;;;;;;;;;;;;;;;;;;4959189;28;20445;-66
2020/12/09 07:21:17;;;;;;;;;;;;;;;;;;4974732;28;19926;-71
2020/12/09 07:23:44;;;;;;;;;;;;;;;;;;4973619;28;19936;-67
2020/12/09 07:26:12;;;;;;;;;;;;;;;;;;4968578;28;19926;-66
2020/12/09 07:28:39;;;;;;;;;;;;;;;;;;4967432;28;19962;-66
2020/12/09 07:31:06;;;;;;;;;;;;;;;;;;4970804;28;19977;-66
2020/12/09 07:33:33;;;;;;;;;;;;;;;;;;4964878;28;19933;-71
2020/12/09 07:36:01;;;;;;;;;;;;;;;;;;4965968;28;19926;-69
2020/12/09 07:38:28;;;;;;;;;;;;;;;;;;4965486;28;20016;-68
2020/12/09 07:40:55;;;;;;;;;;;;;;;;;;4966887;28;19930;-71
2020/12/09 07:43:23;;;;;;;;;;;;;;;;;;4965953;28;19931;-69
2020/12/09 07:45:50;;;;;;;;;;;;;;;;;;4958799;28;19926;-71
2020/12/09 07:48:17;;;;;;;;;;;;;;;;;;4963794;28;19933;-71
2020/12/09 07:50:45;;;;;;;;;;;;;;;;;;4967314;28;20275;-70
2020/12/09 07:53:12;;;;;;;;;;;;;;;;;;4960378;28;19930;-70
2020/12/09 07:55:39;;;;;;;;;;;;;;;;;;4966453;28;19957;-69
2020/12/09 07:58:07;;;;;;;;;;;;;;;;;;4967336;28;19970;-68
2020/12/09 08:00:34;;;;;;;;;;;;;;;;;;4967617;28;19941;-68
2020/12/09 08:03:01;;;;;;;;;;;;;;;;;;4965673;28;19930;-68
2020/12/09 08:05:28;;;;;;;;;;;;;;;;;;4965868;28;19933;-69
2020/12/09 08:07:56;;;;;;;;;;;;;;;;;;4972751;28;19988;-73
2020/12/09 08:10:23;;;;;;;;;;;;;;;;;;4968234;28;19926;-71
2020/12/09 08:12:50;;;;;;;;;;;;;;;;;;4971823;28;20220;-69
2020/12/09 08:15:18;;;;;;;;;;;;;;;;;;4959577;28;20045;-73
2020/12/09 08:17:45;;;;;;;;;;;;;;;;;;4960783;28;20582;-68
2020/12/09 08:20:13;;;;;;;;;;;;;;;;;;4969888;28;19930;-68
2020/12/09 08:22:41;;;;;;;;;;;;;;;;;;4970957;28;20029;-68
2020/12/09 08:25:08;;;;;;;;;;;;;;;;;;4974314;28;20476;-69
2020/12/09 08:27:35;;;;;;;;;;;;;;;;;;4971825;28;20362;-68
2020/12/09 08:30:03;;;;;;;;;;;;;;;;;;4977184;28;20302;-68
2020/12/09 08:32:30;;;;;;;;;;;;;;;;;;4979547;28;20047;-70
2020/12/09 08:34:58;;;;;;;;;;;;;;;;;;4978693;28;19930;-72
2020/12/09 08:37:25;;;;;;;;;;;;;;;;;;4981811;28;19969;-70
2020/12/09 08:39:52;;;;;;;;;;;;;;;;;;4965462;28;20021;-70
2020/12/09 08:42:20;;;;;;;;;;;;;;;;;;4976366;28;19930;-68
2020/12/09 08:44:47;;;;;;;;;;;;;;;;;;4972529;28;20013;-68
2020/12/09 08:47:14;;;;;;;;;;;;;;;;;;4972711;28;20369;-68
2020/12/09 08:49:42;;;;;;;;;;;;;;;;;;4972837;28;19952;-68
2020/12/09 08:52:09;;;;;;;;;;;;;;;;;;4985056;28;20012;-69
2020/12/09 08:54:36;;;;;;;;;;;;;;;;;;4981238;28;20023;-69
2020/12/09 08:57:05;;;;;;;;;;;;;;;;;;4975625;28;19930;-70
2020/12/09 08:59:32;;;;;;;;;;;;;;;;;;4972743;28;19966;-69
2020/12/09 09:02:00;;;;;;;;;;;;;;;;;;4972239;28;20452;-72
2020/12/09 09:04:32;;;;;;;;;;;;;;;;;;4971552;28;20286;-69
2020/12/09 09:06:59;;;;;;;;;;;;;;;;;;4984115;28;19926;-71
2020/12/09 09:09:27;;;;;;;;;;;;;;;;;;4980417;28;19942;-69
2020/12/09 09:11:54;;;;;;;;;;;;;;;;;;4977654;28;19930;-71
2020/12/09 09:14:28;;;;;;;;;;;;;;;;;;4977338;28;19989;-69
2020/12/09 09:16:55;;;;;;;;;;;;;;;;;;4974114;28;19929;-68
2020/12/09 09:19:23;;;;;;;;;;;;;;;;;;4983583;28;19936;-69
2020/12/09 09:21:50;;;;;;;;;;;;;;;;;;4981144;28;19993;-68
2020/12/09 09:24:18;;;;;;;;;;;;;;;;;;4978953;28;20388;-69
2020/12/09 09:26:46;;;;;;;;;;;;;;;;;;4975040;28;19973;-68
2020/12/09 09:29:14;;;;;;;;;;;;;;;;;;4972091;28;20013;-69
2020/12/09 09:31:41;;;;;;;;;;;;;;;;;;4972010;28;19962;-69
2020/12/09 09:34:09;;;;;;;;;;;;;;;;;;4982980;28;19926;-68
2020/12/09 09:36:38;;;;;;;;;;;;;;;;;;4975473;28;19936;-68
2020/12/09 09:39:05;;;;;;;;;;;;;;;;;;4969324;28;20051;-67
2020/12/09 09:41:33;;;;;;;;;;;;;;;;;;4974641;28;20700;-67
2020/12/09 09:44:01;;;;;;;;;;;;;;;;;;4970210;28;20015;-70
2020/12/09 09:46:28;;;;;;;;;;;;;;;;;;4968932;28;19938;-68
2020/12/09 09:48:55;;;;;;;;;;;;;;;;;;4970755;28;20324;-68
2020/12/09 09:51:23;;;;;;;;;;;;;;;;;;4955858;28;20294;-70
2020/12/09 09:53:50;;;;;;;;;;;;;;;;;;4970171;28;20203;-68
2020/12/09 09:56:18;;;;;;;;;;;;;;;;;;4970915;28;19985;-71
2020/12/09 09:58:46;;;;;;;;;;;;;;;;;;4973015;28;19966;-70
2020/12/09 10:01:13;;;;;;;;;;;;;;;;;;4967713;28;20069;-69
2020/12/09 10:03:41;;;;;;;;;;;;;;;;;;4969841;28;20500;-68
2020/12/09 10:06:08;;;;;;;;;;;;;;;;;;4967005;28;20063;-70
2020/12/09 10:08:36;;;;;;;;;;;;;;;;;;4967007;28;19930;-68
2020/12/09 10:11:03;;;;;;;;;;;;;;;;;;4964446;28;19930;-69
2020/12/09 10:13:30;;;;;;;;;;;;;;;;;;4968392;28;20286;-69
2020/12/09 10:15:58;;;;;;;;;;;;;;;;;;4967551;28;19937;-68
2020/12/09 10:18:25;;;;;;;;;;;;;;;;;;4967371;28;19968;-67
2020/12/09 10:20:53;;;;;;;;;;;;;;;;;;4957641;28;19937;-68
2020/12/09 10:23:21;;;;;;;;;;;;;;;;;;4966020;28;20287;-69
2020/12/09 10:25:48;;;;;;;;;;;;;;;;;;4965115;28;20298;-71
2020/12/09 10:28:15;;;;;;;;;;;;;;;;;;4967544;28;20292;-69
2020/12/09 10:30:46;;;;;;;;;;;;;;;;;;4966781;28;20480;-68
2020/12/09 10:33:14;;;;;;;;;;;;;;;;;;4966815;28;19969;-69
2020/12/09 10:35:41;;;;;;;;;;;;;;;;;;4966424;28;19926;-69
2020/12/09 10:38:09;;;;;;;;;;;;;;;;;;4979690;28;20439;-68
2020/12/09 10:40:36;;;;;;;;;;;;;;;;;;4966817;28;19964;-67
2020/12/09 10:43:03;;;;;;;;;;;;;;;;;;4966166;28;19930;-70
2020/12/09 10:45:31;;;;;;;;;;;;;;;;;;4951299;28;20244;-70
2020/12/09 10:47:58;;;;;;;;;;;;;;;;;;4964735;28;20031;-68
2020/12/09 10:50:26;;;;;;;;;;;;;;;;;;4967318;28;19984;-68
2020/12/09 10:52:53;;;;;;;;;;;;;;;;;;4967372;28;19969;-68
2020/12/09 10:55:23;;;;;;;;;;;;;;;;;;4966414;28;19937;-68
2020/12/09 10:57:50;;;;;;;;;;;;;;;;;;4951066;28;19930;-69
2020/12/09 11:00:18;;;;;;;;;;;;;;;;;;4967321;28;20290;-68
2020/12/09 11:02:45;;;;;;;;;;;;;;;;;;4966149;28;19930;-68
2020/12/09 11:05:13;;;;;;;;;;;;;;;;;;4965152;28;19930;-70
2020/12/09 11:07:40;;;;;;;;;;;;;;;;;;4966170;28;20305;-68
2020/12/09 11:10:08;;;;;;;;;;;;;;;;;;4967047;28;20017;-68
2020/12/09 11:12:35;;;;;;;;;;;;;;;;;;4966460;28;20020;-69
2020/12/09 11:15:03;;;;;;;;;;;;;;;;;;4966535;28;20388;-67
2020/12/09 11:17:31;;;;;;;;;;;;;;;;;;4966078;28;20106;-68
2020/12/09 11:19:58;;;;;;;;;;;;;;;;;;4967045;28;20412;-68
2020/12/09 11:22:25;;;;;;;;;;;;;;;;;;4966022;28;19933;-69
2020/12/09 11:24:53;;;;;;;;;;;;;;;;;;4965447;28;20409;-69
2020/12/09 11:27:20;;;;;;;;;;;;;;;;;;4966889;28;20009;-70
2020/12/09 11:29:47;;;;;;;;;;;;;;;;;;4966188;28;19934;-68
2020/12/09 11:32:15;;;;;;;;;;;;;;;;;;4967202;28;19952;-69
2020/12/09 11:34:43;;;;;;;;;;;;;;;;;;4966240;28;19934;-70
2020/12/09 11:37:10;;;;;;;;;;;;;;;;;;4966011;28;19934;-70
2020/12/09 11:39:37;;;;;;;;;;;;;;;;;;4966161;28;19934;-68
2020/12/09 11:42:04;;;;;;;;;;;;;;;;;;4968499;28;20211;-68
2020/12/09 11:44:32;;;;;;;;;;;;;;;;;;4970114;28;19965;-68
2020/12/09 11:47:00;;;;;;;;;;;;;;;;;;4970372;28;19981;-71
2020/12/09 11:49:28;;;;;;;;;;;;;;;;;;4965122;28;20341;-71
2020/12/09 11:51:55;;;;;;;;;;;;;;;;;;4970219;28;19977;-68
2020/12/09 11:54:23;;;;;;;;;;;;;;;;;;4969454;28;19930;-68
2020/12/09 11:56:50;;;;;;;;;;;;;;;;;;4970320;28;19930;-70
2020/12/09 11:59:18;;;;;;;;;;;;;;;;;;4970354;28;20013;-68
2020/12/09 12:01:46;;;;;;;;;;;;;;;;;;4970209;28;19929;-70
2020/12/09 12:04:13;;;;;;;;;;;;;;;;;;4968863;28;20416;-70
2020/12/09 12:06:41;;;;;;;;;;;;;;;;;;4969916;28;19989;-72
2020/12/09 12:09:08;;;;;;;;;;;;;;;;;;4969666;28;20314;-68
2020/12/09 12:11:36;;;;;;;;;;;;;;;;;;4970136;28;20111;-69
2020/12/09 12:14:03;;;;;;;;;;;;;;;;;;4969618;28;20094;-70
2020/12/09 12:16:30;;;;;;;;;;;;;;;;;;4968629;28;20355;-72
2020/12/09 12:18:58;;;;;;;;;;;;;;;;;;4966639;28;20050;-69
2020/12/09 12:21:26;;;;;;;;;;;;;;;;;;4962177;28;19961;-69
2020/12/09 12:23:53;;;;;;;;;;;;;;;;;;4969759;28;19934;-68
2020/12/09 12:26:20;;;;;;;;;;;;;;;;;;4969447;28;20493;-68
2020/12/09 12:28:47;;;;;;;;;;;;;;;;;;4973097;28;20028;-68
2020/12/09 12:31:14;;;;;;;;;;;;;;;;;;4976567;28;19933;-71
2020/12/09 12:33:42;;;;;;;;;;;;;;;;;;4978883;28;20451;-70
2020/12/09 12:36:09;;;;;;;;;;;;;;;;;;4975549;28;20007;-68
2020/12/09 12:38:36;;;;;;;;;;;;;;;;;;4972300;28;19930;-68
2020/12/09 12:41:04;;;;;;;;;;;;;;;;;;4972315;28;19953;-73
2020/12/09 12:43:31;;;;;;;;;;;;;;;;;;4974462;28;19969;-70
2020/12/09 12:45:58;;;;;;;;;;;;;;;;;;4972762;28;20428;-68
2020/12/09 12:48:25;;;;;;;;;;;;;;;;;;4971588;28;19983;-67
2020/12/09 12:50:53;;;;;;;;;;;;;;;;;;4972541;28;19926;-68
2020/12/09 12:53:20;;;;;;;;;;;;;;;;;;4971631;28;19974;-68
2020/12/09 12:55:47;;;;;;;;;;;;;;;;;;4971784;28;19930;-68
2020/12/09 12:58:14;;;;;;;;;;;;;;;;;;4973102;28;20437;-68
2020/12/09 13:00:42;;;;;;;;;;;;;;;;;;4971701;28;19926;-68
2020/12/09 13:03:09;;;;;;;;;;;;;;;;;;4972421;28;20041;-68
2020/12/09 13:05:37;;;;;;;;;;;;;;;;;;4970727;28;19930;-68
2020/12/09 13:08:04;;;;;;;;;;;;;;;;;;4971584;28;20022;-68
2020/12/09 13:10:31;;;;;;;;;;;;;;;;;;4956277;28;19994;-69
2020/12/09 13:13:00;;;;;;;;;;;;;;;;;;4971777;28;19993;-68
2020/12/09 13:15:28;;;;;;;;;;;;;;;;;;4973142;28;20025;-68
2020/12/09 13:17:55;;;;;;;;;;;;;;;;;;4972217;28;19926;-68
2020/12/09 13:20:23;;;;;;;;;;;;;;;;;;4968302;28;19926;-68
2020/12/09 13:22:50;;;;;;;;;;;;;;;;;;4970548;28;19926;-66
2020/12/09 13:25:17;;;;;;;;;;;;;;;;;;4962597;28;19934;-66
2020/12/09 13:27:45;;;;;;;;;;;;;;;;;;4967124;28;19930;-66
2020/12/09 13:30:13;;;;;;;;;;;;;;;;;;4964280;28;19937;-66
2020/12/09 13:32:40;;;;;;;;;;;;;;;;;;4967864;28;19934;-66
2020/12/09 13:35:08;;;;;;;;;;;;;;;;;;4967293;28;19946;-65
2020/12/09 13:37:36;;;;;;;;;;;;;;;;;;4967970;28;19933;-65
2020/12/09 13:40:03;;;;;;;;;;;;;;;;;;4964256;28;20028;-66
2020/12/09 13:42:31;;;;;;;;;;;;;;;;;;4960406;28;19930;-65
2020/12/09 13:44:58;;;;;;;;;;;;;;;;;;4955213;28;19937;-66
2020/12/09 13:47:25;;;;;;;;;;;;;;;;;;4961545;28;19989;-66
2020/12/09 13:49:53;;;;;;;;;;;;;;;;;;4963054;28;19997;-65
2020/12/09 13:52:20;;;;;;;;;;;;;;;;;;4962247;28;19933;-65
2020/12/09 13:54:47;;;;;;;;;;;;;;;;;;4959807;28;19952;-65
2020/12/09 13:57:14;;;;;;;;;;;;;;;;;;4956970;28;20326;-65
2020/12/09 13:59:42;;;;;;;;;;;;;;;;;;4962801;28;19934;-65
2020/12/09 14:02:10;;;;;;;;;;;;;;;;;;4958120;28;19936;-65
2020/12/09 14:04:37;;;;;;;;;;;;;;;;;;4959782;28;20441;-65
2020/12/09 14:07:05;;;;;;;;;;;;;;;;;;4958453;28;19937;-65
2020/12/09 14:09:32;;;;;;;;;;;;;;;;;;4962585;28;19946;-65
2020/12/09 14:12:00;;;;;;;;;;;;;;;;;;4964596;28;20359;-66
2020/12/09 14:14:28;;;;;;;;;;;;;;;;;;4959627;28;19992;-66
2020/12/09 14:16:55;;;;;;;;;;;;;;;;;;4954329;28;19930;-65
2020/12/09 14:19:25;;;;;;;;;;;;;;;;;;4960842;28;19933;-65
2020/12/09 14:21:53;;;;;;;;;;;;;;;;;;4960879;28;19965;-65
2020/12/09 14:24:20;;;;;;;;;;;;;;;;;;4952371;28;20354;-65
2020/12/09 14:26:48;;;;;;;;;;;;;;;;;;4962335;28;19934;-65
2020/12/09 14:29:15;;;;;;;;;;;;;;;;;;4958813;28;19926;-65
2020/12/09 14:31:42;;;;;;;;;;;;;;;;;;4954219;28;20009;-65
2020/12/09 14:34:09;;;;;;;;;;;;;;;;;;4958381;28;19985;-66
2020/12/09 14:36:37;;;;;;;;;;;;;;;;;;4955445;28;20180;-66
2020/12/09 14:39:04;;;;;;;;;;;;;;;;;;4958408;28;20064;-66
2020/12/09 14:41:31;;;;;;;;;;;;;;;;;;4950908;28;20206;-66
2020/12/09 14:43:59;;;;;;;;;;;;;;;;;;4954873;28;20389;-66
2020/12/09 14:46:26;;;;;;;;;;;;;;;;;;4959939;28;20024;-66
2020/12/09 14:48:54;;;;;;;;;;;;;;;;;;4951987;28;20374;-66
2020/12/09 14:51:21;;;;;;;;;;;;;;;;;;4958428;28;19926;-66
2020/12/09 14:53:49;;;;;;;;;;;;;;;;;;4961349;28;19945;-66
2020/12/09 14:56:16;;;;;;;;;;;;;;;;;;4960900;28;20008;-65
2020/12/09 14:58:43;;;;;;;;;;;;;;;;;;4961254;28;19930;-65
2020/12/09 15:01:11;;;;;;;;;;;;;;;;;;4966908;28;19993;-65
2020/12/09 15:03:38;;;;;;;;;;;;;;;;;;4958066;28;19973;-65
2020/12/09 15:06:05;;;;;;;;;;;;;;;;;;4953510;28;20393;-65
2020/12/09 15:08:32;;;;;;;;;;;;;;;;;;4961114;28;19931;-65
2020/12/09 15:11:00;;;;;;;;;;;;;;;;;;4952242;28;19937;-65
2020/12/09 15:13:27;;;;;;;;;;;;;;;;;;4953044;28;20336;-65
2020/12/09 15:15:54;;;;;;;;;;;;;;;;;;4950794;28;19933;-65
2020/12/09 15:18:24;;;;;;;;;;;;;;;;;;4957634;28;19934;-65
2020/12/09 15:20:52;;;;;;;;;;;;;;;;;;4956702;28;19961;-65
2020/12/09 15:23:19;;;;;;;;;;;;;;;;;;4954936;28;19930;-66
2020/12/09 15:25:46;;;;;;;;;;;;;;;;;;4955777;28;19930;-65
2020/12/09 15:28:13;;;;;;;;;;;;;;;;;;4956856;28;19934;-65
2020/12/09 15:30:41;;;;;;;;;;;;;;;;;;4957330;28;19926;-65
2020/12/09 15:33:08;;;;;;;;;;;;;;;;;;4956307;28;19973;-66
2020/12/09 15:35:36;;;;;;;;;;;;;;;;;;4963790;28;20040;-65
2020/12/09 15:38:03;;;;;;;;;;;;;;;;;;4974925;28;19930;-65
2020/12/09 15:40:30;;;;;;;;;;;;;;;;;;4968673;28;19930;-66
2020/12/09 15:42:59;;;;;;;;;;;;;;;;;;4962647;28;19931;-65
2020/12/09 15:45:26;;;;;;;;;;;;;;;;;;4957571;28;19969;-65
2020/12/09 15:47:53;;;;;;;;;;;;;;;;;;4963081;28;20247;-65
2020/12/09 15:50:20;;;;;;;;;;;;;;;;;;4957552;28;19961;-65
2020/12/09 15:52:47;;;;;;;;;;;;;;;;;;4965428;28;20230;-66
2020/12/09 15:55:15;;;;;;;;;;;;;;;;;;4957652;28;19946;-66
2020/12/09 15:57:42;;;;;;;;;;;;;;;;;;4959744;28;19941;-65
2020/12/09 16:00:10;;;;;;;;;;;;;;;;;;4960272;28;19949;-66
2020/12/09 16:02:38;;;;;;;;;;;;;;;;;;4966360;28;20049;-66
2020/12/09 16:05:05;;;;;;;;;;;;;;;;;;4960200;28;20052;-66
2020/12/09 16:07:34;;;;;;;;;;;;;;;;;;4959429;28;20030;-66
2020/12/09 16:10:02;;;;;;;;;;;;;;;;;;4965545;28;19934;-66
2020/12/09 16:12:29;;;;;;;;;;;;;;;;;;4959268;28;20369;-66
2020/12/09 16:14:58;;;;;;;;;;;;;;;;;;4960694;28;20412;-65
2020/12/09 16:17:25;;;;;;;;;;;;;;;;;;4957601;28;20347;-66
2020/12/09 16:19:58;;;;;;;;;;;;;;;;;;4963214;28;20428;-66
2020/12/09 16:22:25;;;;;;;;;;;;;;;;;;4958949;28;19931;-66
2020/12/09 16:24:53;;;;;;;;;;;;;;;;;;4959522;28;19930;-66
2020/12/09 16:27:20;;;;;;;;;;;;;;;;;;4966428;28;19973;-65
2020/12/09 16:29:47;;;;;;;;;;;;;;;;;;4966782;28;20354;-65
2020/12/09 16:32:14;;;;;;;;;;;;;;;;;;4965998;28;19934;-66
2020/12/09 16:34:41;;;;;;;;;;;;;;;;;;4962471;28;19930;-66
2020/12/09 16:37:09;;;;;;;;;;;;;;;;;;4959448;28;19930;-66
2020/12/09 16:39:36;;;;;;;;;;;;;;;;;;4964488;28;20017;-66
2020/12/09 16:42:03;;;;;;;;;;;;;;;;;;4962119;28;19934;-66
2020/12/09 16:44:31;;;;;;;;;;;;;;;;;;4967108;28;20296;-66
2020/12/09 16:47:12;;;;;;;;;;;;;;;;;;4958920;28;20437;-66
2020/12/09 16:49:39;;;;;;;;;;;;;;;;;;4958038;28;20013;-66